TVF7381 LFBZ-LFML
Flight info
| Callsign | TVF7381 |
|---|---|
| Flight time | 1h 6m |
| Altitude | 32000 |
| Route | SOVOS DCT ORTEZ DCT TBO DCT GONUP DCT TOU DCT GAI DCT DEGOL DCT FJR |
| Aircraft | B738/M-SDE2E3FGHIRWXY/LB1 |
Departure
| Time | 2026-04-23 13:36 |
|---|---|
| Airport | Biarritz Pays Basque airport (LFBZ) |
Arrival
| Time | 2026-04-23 14:43 |
|---|---|
| Airport | Marseille Provence Airport (LFML) |
| Time | Latitude | Longitude | Altitude | Speed | Heading |
|---|---|---|---|---|---|
| 2026-04-23 13:22 | 43.47131 | -1.53088 | 255 ft | 0 kts | 19° |
| 2026-04-23 13:26 | 43.47123 | -1.53196 | 256 ft | 0 kts | 11° |
| 2026-04-23 13:28 | 43.47108 | -1.53199 | 256 ft | 4 kts | 348° |
| 2026-04-23 13:28 | 43.47085 | -1.53186 | 256 ft | 2 kts | 328° |
| 2026-04-23 13:29 | 43.47066 | -1.53166 | 256 ft | 4 kts | 309° |
| 2026-04-23 13:29 | 43.47053 | -1.53135 | 256 ft | 4 kts | 278° |
| 2026-04-23 13:29 | 43.47053 | -1.53099 | 255 ft | 4 kts | 264° |
| 2026-04-23 13:29 | 43.47054 | -1.53077 | 255 ft | 0 kts | 269° |
| 2026-04-23 13:31 | 43.47054 | -1.53081 | 255 ft | 2 kts | 269° |
| 2026-04-23 13:31 | 43.47051 | -1.53124 | 256 ft | 8 kts | 261° |
| 2026-04-23 13:32 | 43.47011 | -1.53196 | 256 ft | 12 kts | 203° |
| 2026-04-23 13:32 | 43.46923 | -1.53182 | 256 ft | 14 kts | 154° |
| 2026-04-23 13:32 | 43.46835 | -1.53200 | 256 ft | 15 kts | 244° |
| 2026-04-23 13:32 | 43.46829 | -1.53340 | 257 ft | 15 kts | 269° |
| 2026-04-23 13:33 | 43.46827 | -1.53485 | 259 ft | 15 kts | 269° |
| 2026-04-23 13:33 | 43.46840 | -1.53629 | 259 ft | 15 kts | 296° |
| 2026-04-23 13:33 | 43.46836 | -1.53705 | 260 ft | 7 kts | 177° |
| 2026-04-23 13:33 | 43.46825 | -1.53638 | 260 ft | 8 kts | 88° |
| 2026-04-23 13:34 | 43.46829 | -1.53310 | 257 ft | 78 kts | 89° |
| 2026-04-23 13:34 | 43.47120 | -1.53093 | 256 ft | 0 kts | 19° |
| 2026-04-23 13:34 | 43.47121 | -1.53092 | 255 ft | 0 kts | 19° |
| 2026-04-23 13:34 | 43.47124 | -1.53091 | 255 ft | 1 kts | 19° |
| 2026-04-23 13:35 | 43.47125 | -1.53083 | 255 ft | 2 kts | 82° |
| 2026-04-23 13:35 | 43.47086 | -1.53091 | 255 ft | 7 kts | 215° |
| 2026-04-23 13:35 | 43.47046 | -1.53151 | 256 ft | 10 kts | 234° |
| 2026-04-23 13:35 | 43.46965 | -1.53197 | 256 ft | 16 kts | 174° |
| 2026-04-23 13:36 | 43.46852 | -1.53181 | 256 ft | 14 kts | 171° |
| 2026-04-23 13:36 | 43.46837 | -1.52823 | 254 ft | 86 kts | 91° |
| 2026-04-23 13:36 | 43.46851 | -1.51540 | 261 ft | 177 kts | 89° |
| 2026-04-23 13:36 | 43.46877 | -1.49686 | 1088 ft | 197 kts | 88° |
| 2026-04-23 13:37 | 43.46894 | -1.47882 | 2318 ft | 182 kts | 89° |
| 2026-04-23 13:37 | 43.46880 | -1.46098 | 3181 ft | 197 kts | 98° |
| 2026-04-23 13:37 | 43.46595 | -1.44079 | 3531 ft | 230 kts | 105° |
| 2026-04-23 13:37 | 43.46205 | -1.41832 | 4094 ft | 250 kts | 106° |
| 2026-04-23 13:38 | 43.45799 | -1.39408 | 4775 ft | 266 kts | 106° |
| 2026-04-23 13:38 | 43.45399 | -1.36923 | 5778 ft | 270 kts | 105° |
| 2026-04-23 13:38 | 43.44997 | -1.34376 | 6878 ft | 273 kts | 105° |
| 2026-04-23 13:38 | 43.44592 | -1.31796 | 7847 ft | 278 kts | 105° |
| 2026-04-23 13:39 | 43.44181 | -1.29174 | 8837 ft | 282 kts | 104° |
| 2026-04-23 13:39 | 43.43764 | -1.26505 | 9835 ft | 287 kts | 105° |
| 2026-04-23 13:39 | 43.43341 | -1.23807 | 10567 ft | 300 kts | 104° |
| 2026-04-23 13:39 | 43.42873 | -1.20843 | 10789 ft | 331 kts | 103° |
| 2026-04-23 13:40 | 43.42362 | -1.17616 | 11001 ft | 359 kts | 104° |
| 2026-04-23 13:40 | 43.41820 | -1.14189 | 11297 ft | 379 kts | 104° |
| 2026-04-23 13:40 | 43.41297 | -1.10574 | 11923 ft | 389 kts | 101° |
| 2026-04-23 13:40 | 43.40830 | -1.06884 | 12744 ft | 393 kts | 101° |
| 2026-04-23 13:41 | 43.40373 | -1.03144 | 13486 ft | 399 kts | 101° |
| 2026-04-23 13:41 | 43.39904 | -0.99353 | 14160 ft | 405 kts | 101° |
| 2026-04-23 13:41 | 43.39422 | -0.95559 | 14847 ft | 409 kts | 101° |
| 2026-04-23 13:41 | 43.38922 | -0.91695 | 15559 ft | 412 kts | 100° |
| 2026-04-23 13:42 | 43.38426 | -0.87785 | 16235 ft | 417 kts | 99° |
| 2026-04-23 13:42 | 43.37970 | -0.83825 | 16918 ft | 421 kts | 98° |
| 2026-04-23 13:42 | 43.37526 | -0.79825 | 17585 ft | 425 kts | 98° |
| 2026-04-23 13:42 | 43.37072 | -0.75791 | 18238 ft | 430 kts | 98° |
| 2026-04-23 13:43 | 43.36609 | -0.71705 | 18778 ft | 434 kts | 97° |
| 2026-04-23 13:43 | 43.36305 | -0.67549 | 19310 ft | 438 kts | 93° |
| 2026-04-23 13:43 | 43.36155 | -0.63382 | 19847 ft | 442 kts | 91° |
| 2026-04-23 13:43 | 43.36048 | -0.59140 | 20381 ft | 446 kts | 91° |
| 2026-04-23 13:44 | 43.35938 | -0.54860 | 20913 ft | 450 kts | 91° |
| 2026-04-23 13:44 | 43.35811 | -0.50528 | 21422 ft | 454 kts | 91° |
| 2026-04-23 13:44 | 43.35664 | -0.46174 | 21910 ft | 458 kts | 92° |
| 2026-04-23 13:44 | 43.35505 | -0.41835 | 22378 ft | 462 kts | 92° |
| 2026-04-23 13:45 | 43.35390 | -0.38831 | 22691 ft | 465 kts | 92° |
| 2026-04-23 13:45 | 43.35157 | -0.32907 | 23304 ft | 470 kts | 92° |
| 2026-04-23 13:45 | 43.34977 | -0.28396 | 23743 ft | 474 kts | 92° |
| 2026-04-23 13:45 | 43.34795 | -0.23862 | 24182 ft | 475 kts | 92° |
| 2026-04-23 13:46 | 43.34615 | -0.19367 | 24622 ft | 477 kts | 92° |
| 2026-04-23 13:46 | 43.34430 | -0.14796 | 25034 ft | 480 kts | 92° |
| 2026-04-23 13:46 | 43.34243 | -0.10194 | 25398 ft | 483 kts | 92° |
| 2026-04-23 13:46 | 43.34053 | -0.05575 | 25765 ft | 486 kts | 92° |
| 2026-04-23 13:47 | 43.33859 | -0.00909 | 26144 ft | 489 kts | 92° |
| 2026-04-23 13:47 | 43.33662 | 0.03777 | 26437 ft | 492 kts | 91° |
| 2026-04-23 13:47 | 43.33465 | 0.08427 | 26754 ft | 496 kts | 91° |
| 2026-04-23 13:47 | 43.33356 | 0.13181 | 27088 ft | 497 kts | 87° |
| 2026-04-23 13:48 | 43.33776 | 0.17883 | 27375 ft | 496 kts | 72° |
| 2026-04-23 13:48 | 43.34871 | 0.22372 | 27765 ft | 494 kts | 66° |
| 2026-04-23 13:48 | 43.36102 | 0.26779 | 28206 ft | 493 kts | 66° |
| 2026-04-23 13:48 | 43.37191 | 0.31201 | 28671 ft | 494 kts | 71° |
| 2026-04-23 13:49 | 43.38066 | 0.35774 | 29180 ft | 494 kts | 73° |
| 2026-04-23 13:49 | 43.38864 | 0.40370 | 29693 ft | 493 kts | 73° |
| 2026-04-23 13:49 | 43.39688 | 0.44942 | 30159 ft | 492 kts | 72° |
| 2026-04-23 13:49 | 43.40569 | 0.49479 | 30565 ft | 490 kts | 71° |
| 2026-04-23 13:50 | 43.41497 | 0.53990 | 30987 ft | 489 kts | 71° |
| 2026-04-23 13:50 | 43.42437 | 0.58426 | 31411 ft | 487 kts | 70° |
| 2026-04-23 13:50 | 43.43392 | 0.62912 | 31848 ft | 486 kts | 70° |
| 2026-04-23 13:50 | 43.44334 | 0.67382 | 32112 ft | 488 kts | 71° |
| 2026-04-23 13:51 | 43.45277 | 0.71899 | 32095 ft | 490 kts | 71° |
| 2026-04-23 13:51 | 43.47345 | 0.80737 | 32087 ft | 484 kts | 69° |
| 2026-04-23 13:52 | 43.49118 | 0.89703 | 32088 ft | 486 kts | 74° |
| 2026-04-23 13:52 | 43.50413 | 0.98859 | 32099 ft | 488 kts | 77° |
| 2026-04-23 13:53 | 43.51612 | 1.08102 | 32104 ft | 491 kts | 76° |
| 2026-04-23 13:53 | 43.52959 | 1.17292 | 32119 ft | 491 kts | 75° |
| 2026-04-23 13:54 | 43.54400 | 1.26480 | 32108 ft | 491 kts | 74° |
| 2026-04-23 13:54 | 43.55857 | 1.35698 | 32111 ft | 490 kts | 74° |
| 2026-04-23 13:55 | 43.57288 | 1.44848 | 32121 ft | 489 kts | 74° |
| 2026-04-23 13:55 | 43.58708 | 1.54038 | 32135 ft | 489 kts | 74° |
| 2026-04-23 13:56 | 43.60116 | 1.63215 | 32124 ft | 488 kts | 74° |
| 2026-04-23 13:56 | 43.61510 | 1.72344 | 32130 ft | 488 kts | 74° |
| 2026-04-23 13:57 | 43.62904 | 1.81510 | 32134 ft | 487 kts | 74° |
| 2026-04-23 13:57 | 43.64287 | 1.90671 | 32130 ft | 487 kts | 74° |
| 2026-04-23 13:58 | 43.65656 | 1.99789 | 32149 ft | 487 kts | 74° |
| 2026-04-23 13:58 | 43.67022 | 2.08939 | 32139 ft | 486 kts | 74° |
| 2026-04-23 13:59 | 43.68381 | 2.18092 | 32145 ft | 485 kts | 74° |
| 2026-04-23 13:59 | 43.69731 | 2.27242 | 32141 ft | 485 kts | 74° |
| 2026-04-23 14:00 | 43.70845 | 2.34842 | 32158 ft | 485 kts | 73° |
| 2026-04-23 14:00 | 43.72178 | 2.43986 | 32179 ft | 485 kts | 73° |
| 2026-04-23 14:01 | 43.73502 | 2.53090 | 32201 ft | 486 kts | 73° |
| 2026-04-23 14:01 | 43.74827 | 2.62274 | 32217 ft | 486 kts | 74° |
| 2026-04-23 14:02 | 43.76146 | 2.71465 | 32213 ft | 487 kts | 74° |
| 2026-04-23 14:02 | 43.77440 | 2.80695 | 31943 ft | 491 kts | 76° |
| 2026-04-23 14:02 | 43.77763 | 2.85352 | 31426 ft | 492 kts | 86° |
| 2026-04-23 14:03 | 43.77330 | 2.90104 | 30813 ft | 493 kts | 99° |
| 2026-04-23 14:03 | 43.76474 | 2.94643 | 30024 ft | 493 kts | 103° |
| 2026-04-23 14:03 | 43.75499 | 2.99201 | 29126 ft | 492 kts | 104° |
| 2026-04-23 14:03 | 43.74542 | 3.03733 | 28255 ft | 490 kts | 103° |
| 2026-04-23 14:04 | 43.73683 | 3.08277 | 27390 ft | 487 kts | 100° |
| 2026-04-23 14:04 | 43.72945 | 3.12848 | 26449 ft | 486 kts | 99° |
| 2026-04-23 14:04 | 43.72242 | 3.17417 | 25530 ft | 485 kts | 99° |
| 2026-04-23 14:04 | 43.71523 | 3.21954 | 24919 ft | 476 kts | 100° |
| 2026-04-23 14:05 | 43.70786 | 3.26388 | 24246 ft | 470 kts | 101° |
| 2026-04-23 14:05 | 43.70038 | 3.30695 | 23563 ft | 463 kts | 101° |
| 2026-04-23 14:05 | 43.69274 | 3.34984 | 22823 ft | 457 kts | 101° |
| 2026-04-23 14:05 | 43.68507 | 3.39221 | 22160 ft | 450 kts | 102° |
| 2026-04-23 14:06 | 43.67749 | 3.43393 | 21504 ft | 445 kts | 102° |
| 2026-04-23 14:06 | 43.67000 | 3.47512 | 20844 ft | 439 kts | 102° |
| 2026-04-23 14:06 | 43.66253 | 3.51622 | 20220 ft | 445 kts | 102° |
| 2026-04-23 14:06 | 43.65492 | 3.55820 | 19577 ft | 454 kts | 102° |
| 2026-04-23 14:07 | 43.64736 | 3.59977 | 18922 ft | 449 kts | 102° |
| 2026-04-23 14:07 | 43.63222 | 3.68257 | 17475 ft | 434 kts | 102° |
| 2026-04-23 14:07 | 43.62496 | 3.72216 | 16846 ft | 427 kts | 102° |
| 2026-04-23 14:08 | 43.61772 | 3.76160 | 16185 ft | 420 kts | 102° |
| 2026-04-23 14:08 | 43.61057 | 3.80046 | 15570 ft | 413 kts | 103° |
| 2026-04-23 14:08 | 43.60356 | 3.83854 | 14960 ft | 406 kts | 103° |
| 2026-04-23 14:08 | 43.59664 | 3.87608 | 14356 ft | 400 kts | 102° |
| 2026-04-23 14:09 | 43.58988 | 3.91261 | 13732 ft | 394 kts | 103° |
| 2026-04-23 14:09 | 43.58314 | 3.94897 | 13105 ft | 387 kts | 102° |
| 2026-04-23 14:09 | 43.57778 | 3.98508 | 12544 ft | 379 kts | 95° |
| 2026-04-23 14:09 | 43.57884 | 4.02082 | 12259 ft | 371 kts | 82° |
| 2026-04-23 14:10 | 43.58237 | 4.05703 | 11736 ft | 389 kts | 82° |
| 2026-04-23 14:10 | 43.58444 | 4.09339 | 11484 ft | 376 kts | 87° |
| 2026-04-23 14:10 | 43.58441 | 4.12869 | 11314 ft | 359 kts | 90° |
| 2026-04-23 14:10 | 43.58370 | 4.16236 | 11159 ft | 343 kts | 90° |
| 2026-04-23 14:11 | 43.58312 | 4.19465 | 11008 ft | 330 kts | 90° |
| 2026-04-23 14:11 | 43.58288 | 4.22539 | 10879 ft | 317 kts | 89° |
| 2026-04-23 14:11 | 43.58288 | 4.25533 | 10743 ft | 306 kts | 89° |
| 2026-04-23 14:11 | 43.58304 | 4.28420 | 10617 ft | 295 kts | 88° |
| 2026-04-23 14:12 | 43.58329 | 4.31205 | 10494 ft | 285 kts | 89° |
| 2026-04-23 14:12 | 43.58357 | 4.33906 | 10377 ft | 276 kts | 88° |
| 2026-04-23 14:12 | 43.58385 | 4.36480 | 10266 ft | 268 kts | 88° |
| 2026-04-23 14:12 | 43.58414 | 4.39034 | 9986 ft | 265 kts | 89° |
| 2026-04-23 14:13 | 43.58444 | 4.41613 | 9556 ft | 269 kts | 89° |
| 2026-04-23 14:13 | 43.58474 | 4.44180 | 9269 ft | 267 kts | 89° |
| 2026-04-23 14:13 | 43.58503 | 4.46737 | 8978 ft | 265 kts | 89° |
| 2026-04-23 14:13 | 43.58531 | 4.49233 | 8709 ft | 262 kts | 89° |
| 2026-04-23 14:14 | 43.58559 | 4.51740 | 8452 ft | 259 kts | 89° |
| 2026-04-23 14:14 | 43.58586 | 4.54223 | 8182 ft | 257 kts | 89° |
| 2026-04-23 14:14 | 43.58612 | 4.56677 | 7944 ft | 254 kts | 89° |
| 2026-04-23 14:14 | 43.58637 | 4.59105 | 7682 ft | 251 kts | 89° |
| 2026-04-23 14:15 | 43.58661 | 4.61475 | 7443 ft | 249 kts | 89° |
| 2026-04-23 14:15 | 43.58685 | 4.63856 | 7182 ft | 247 kts | 89° |
| 2026-04-23 14:15 | 43.58708 | 4.66226 | 6938 ft | 245 kts | 89° |
| 2026-04-23 14:15 | 43.58731 | 4.68573 | 6696 ft | 243 kts | 89° |
| 2026-04-23 14:16 | 43.58752 | 4.70872 | 6428 ft | 242 kts | 89° |
| 2026-04-23 14:16 | 43.58774 | 4.73185 | 6218 ft | 238 kts | 89° |
| 2026-04-23 14:16 | 43.58794 | 4.75414 | 6154 ft | 227 kts | 89° |
| 2026-04-23 14:16 | 43.58813 | 4.77574 | 6030 ft | 221 kts | 89° |
| 2026-04-23 14:17 | 43.58831 | 4.79672 | 5944 ft | 217 kts | 89° |
| 2026-04-23 14:17 | 43.58849 | 4.81738 | 5876 ft | 219 kts | 89° |
| 2026-04-23 14:17 | 43.58866 | 4.83830 | 5773 ft | 214 kts | 89° |
| 2026-04-23 14:17 | 43.58883 | 4.85880 | 5530 ft | 214 kts | 89° |
| 2026-04-23 14:18 | 43.58900 | 4.87931 | 5330 ft | 213 kts | 89° |
| 2026-04-23 14:18 | 43.58917 | 4.89986 | 5095 ft | 214 kts | 89° |
| 2026-04-23 14:18 | 43.58932 | 4.92023 | 4863 ft | 214 kts | 89° |
| 2026-04-23 14:18 | 43.58947 | 4.94078 | 4601 ft | 214 kts | 89° |
| 2026-04-23 14:19 | 43.58962 | 4.96135 | 4349 ft | 214 kts | 89° |
| 2026-04-23 14:19 | 43.58974 | 4.98182 | 4140 ft | 212 kts | 90° |
| 2026-04-23 14:19 | 43.58571 | 5.00075 | 4022 ft | 210 kts | 126° |
| 2026-04-23 14:19 | 43.57594 | 5.01511 | 4033 ft | 200 kts | 134° |
| 2026-04-23 14:20 | 43.56655 | 5.02794 | 4025 ft | 180 kts | 131° |
| 2026-04-23 14:20 | 43.55801 | 5.04032 | 3754 ft | 184 kts | 133° |
| 2026-04-23 14:20 | 43.54868 | 5.05305 | 3014 ft | 193 kts | 136° |
| 2026-04-23 14:20 | 43.53944 | 5.06631 | 2561 ft | 182 kts | 134° |
| 2026-04-23 14:21 | 43.53098 | 5.07880 | 2217 ft | 171 kts | 136° |
| 2026-04-23 14:21 | 43.52328 | 5.09046 | 2066 ft | 156 kts | 135° |
| 2026-04-23 14:21 | 43.51606 | 5.10091 | 1869 ft | 148 kts | 138° |
| 2026-04-23 14:21 | 43.50914 | 5.11072 | 1630 ft | 139 kts | 135° |
| 2026-04-23 14:22 | 43.50245 | 5.12045 | 1436 ft | 141 kts | 136° |
| 2026-04-23 14:22 | 43.49584 | 5.13025 | 1342 ft | 141 kts | 137° |
| 2026-04-23 14:22 | 43.48932 | 5.14045 | 1260 ft | 142 kts | 137° |
| 2026-04-23 14:22 | 43.48240 | 5.15020 | 1112 ft | 143 kts | 137° |
| 2026-04-23 14:23 | 43.47528 | 5.15996 | 919 ft | 146 kts | 138° |
| 2026-04-23 14:23 | 43.46816 | 5.17009 | 637 ft | 147 kts | 136° |
| 2026-04-23 14:23 | 43.46117 | 5.18028 | 416 ft | 147 kts | 137° |
| 2026-04-23 14:23 | 43.45389 | 5.19028 | 235 ft | 146 kts | 136° |
| 2026-04-23 14:24 | 43.44688 | 5.20012 | 332 ft | 145 kts | 137° |
| 2026-04-23 14:24 | 43.43905 | 5.21134 | 862 ft | 179 kts | 137° |
| 2026-04-23 14:24 | 43.42968 | 5.22433 | 1869 ft | 197 kts | 137° |
| 2026-04-23 14:24 | 43.42046 | 5.23750 | 3285 ft | 188 kts | 132° |
| 2026-04-23 14:25 | 43.41069 | 5.25160 | 3949 ft | 230 kts | 132° |
| 2026-04-23 14:25 | 43.39830 | 5.26943 | 4001 ft | 283 kts | 132° |
| 2026-04-23 14:25 | 43.38423 | 5.28945 | 3957 ft | 285 kts | 133° |
| 2026-04-23 14:25 | 43.36880 | 5.30436 | 3940 ft | 258 kts | 161° |
| 2026-04-23 14:26 | 43.35212 | 5.30805 | 3969 ft | 238 kts | 174° |
| 2026-04-23 14:26 | 43.33573 | 5.30815 | 3966 ft | 235 kts | 181° |
| 2026-04-23 14:26 | 43.31977 | 5.30309 | 3969 ft | 234 kts | 198° |
| 2026-04-23 14:26 | 43.30443 | 5.29513 | 3970 ft | 237 kts | 198° |
| 2026-04-23 14:27 | 43.28887 | 5.28759 | 3976 ft | 235 kts | 192° |
| 2026-04-23 14:27 | 43.27304 | 5.28431 | 3984 ft | 232 kts | 183° |
| 2026-04-23 14:27 | 43.25737 | 5.27822 | 3960 ft | 239 kts | 209° |
| 2026-04-23 14:27 | 43.24596 | 5.26161 | 3981 ft | 244 kts | 241° |
| 2026-04-23 14:28 | 43.24236 | 5.23884 | 3975 ft | 248 kts | 274° |
| 2026-04-23 14:28 | 43.24603 | 5.21544 | 3967 ft | 253 kts | 287° |
| 2026-04-23 14:28 | 43.25085 | 5.19280 | 3935 ft | 246 kts | 288° |
| 2026-04-23 14:28 | 43.25564 | 5.17058 | 3965 ft | 241 kts | 288° |
| 2026-04-23 14:29 | 43.26042 | 5.14823 | 3971 ft | 248 kts | 288° |
| 2026-04-23 14:29 | 43.26529 | 5.12521 | 3966 ft | 251 kts | 288° |
| 2026-04-23 14:29 | 43.27014 | 5.10229 | 3966 ft | 248 kts | 288° |
| 2026-04-23 14:29 | 43.27490 | 5.07982 | 3966 ft | 248 kts | 288° |
| 2026-04-23 14:30 | 43.27969 | 5.05705 | 3970 ft | 247 kts | 288° |
| 2026-04-23 14:30 | 43.28447 | 5.03443 | 3981 ft | 245 kts | 287° |
| 2026-04-23 14:30 | 43.28936 | 5.01193 | 3968 ft | 246 kts | 288° |
| 2026-04-23 14:30 | 43.29418 | 4.98934 | 3976 ft | 244 kts | 287° |
| 2026-04-23 14:31 | 43.29900 | 4.96702 | 3975 ft | 245 kts | 287° |
| 2026-04-23 14:31 | 43.30535 | 4.94539 | 3964 ft | 247 kts | 304° |
| 2026-04-23 14:31 | 43.31618 | 4.92643 | 3985 ft | 253 kts | 311° |
| 2026-04-23 14:31 | 43.32754 | 4.90842 | 3965 ft | 254 kts | 313° |
| 2026-04-23 14:32 | 43.33971 | 4.89105 | 3968 ft | 252 kts | 318° |
| 2026-04-23 14:32 | 43.35249 | 4.87404 | 3986 ft | 255 kts | 318° |
| 2026-04-23 14:32 | 43.36537 | 4.85697 | 3977 ft | 257 kts | 318° |
| 2026-04-23 14:32 | 43.37800 | 4.84043 | 3970 ft | 251 kts | 319° |
| 2026-04-23 14:33 | 43.39067 | 4.82408 | 3960 ft | 249 kts | 319° |
| 2026-04-23 14:33 | 43.40394 | 4.80844 | 3971 ft | 251 kts | 324° |
| 2026-04-23 14:33 | 43.41926 | 4.79695 | 3972 ft | 250 kts | 344° |
| 2026-04-23 14:33 | 43.43608 | 4.79129 | 3979 ft | 249 kts | 352° |
| 2026-04-23 14:34 | 43.45291 | 4.78742 | 3969 ft | 248 kts | 359° |
| 2026-04-23 14:34 | 43.46895 | 4.79265 | 3972 ft | 234 kts | 38° |
| 2026-04-23 14:34 | 43.48097 | 4.80765 | 3972 ft | 235 kts | 47° |
| 2026-04-23 14:34 | 43.49260 | 4.82327 | 3965 ft | 233 kts | 44° |
| 2026-04-23 14:35 | 43.50479 | 4.83788 | 3979 ft | 233 kts | 43° |
| 2026-04-23 14:35 | 43.51744 | 4.85213 | 3976 ft | 235 kts | 41° |
| 2026-04-23 14:35 | 43.53016 | 4.86622 | 3975 ft | 233 kts | 41° |
| 2026-04-23 14:35 | 43.54283 | 4.88038 | 3983 ft | 235 kts | 40° |
| 2026-04-23 14:36 | 43.55554 | 4.89437 | 3976 ft | 237 kts | 40° |
| 2026-04-23 14:36 | 43.56853 | 4.90857 | 3972 ft | 238 kts | 40° |
| 2026-04-23 14:36 | 43.58125 | 4.92239 | 3963 ft | 227 kts | 39° |
| 2026-04-23 14:36 | 43.59211 | 4.93757 | 3963 ft | 221 kts | 60° |
| 2026-04-23 14:37 | 43.59638 | 4.95758 | 3955 ft | 220 kts | 86° |
| 2026-04-23 14:37 | 43.59486 | 4.97811 | 3955 ft | 209 kts | 104° |
| 2026-04-23 14:37 | 43.58846 | 4.99528 | 3966 ft | 195 kts | 127° |
| 2026-04-23 14:37 | 43.58016 | 5.00939 | 3722 ft | 188 kts | 127° |
| 2026-04-23 14:38 | 43.57170 | 5.02297 | 3480 ft | 186 kts | 131° |
| 2026-04-23 14:38 | 43.56268 | 5.03594 | 3233 ft | 188 kts | 134° |
| 2026-04-23 14:38 | 43.55362 | 5.04876 | 2992 ft | 183 kts | 135° |
| 2026-04-23 14:38 | 43.54483 | 5.06123 | 2747 ft | 179 kts | 136° |
| 2026-04-23 14:39 | 43.53646 | 5.07310 | 2537 ft | 166 kts | 136° |
| 2026-04-23 14:39 | 43.52868 | 5.08419 | 2300 ft | 156 kts | 136° |
| 2026-04-23 14:39 | 43.52128 | 5.09481 | 2084 ft | 151 kts | 137° |
| 2026-04-23 14:39 | 43.51415 | 5.10532 | 1768 ft | 149 kts | 138° |
| 2026-04-23 14:40 | 43.50687 | 5.11519 | 1674 ft | 145 kts | 138° |
| 2026-04-23 14:40 | 43.49976 | 5.12507 | 1638 ft | 146 kts | 139° |
| 2026-04-23 14:40 | 43.49276 | 5.13505 | 1548 ft | 142 kts | 138° |
| 2026-04-23 14:40 | 43.48614 | 5.14475 | 1294 ft | 135 kts | 139° |
| 2026-04-23 14:41 | 43.47939 | 5.15394 | 1008 ft | 136 kts | 138° |
| 2026-04-23 14:41 | 43.47271 | 5.16328 | 853 ft | 141 kts | 137° |
| 2026-04-23 14:41 | 43.46606 | 5.17323 | 679 ft | 140 kts | 138° |
| 2026-04-23 14:41 | 43.45927 | 5.18283 | 446 ft | 141 kts | 139° |
| 2026-04-23 14:42 | 43.45246 | 5.19255 | 220 ft | 139 kts | 136° |
| 2026-04-23 14:42 | 43.44575 | 5.20218 | 28 ft | 138 kts | 135° |
| 2026-04-23 14:42 | 43.43998 | 5.21035 | 34 ft | 97 kts | 134° |
| 2026-04-23 14:42 | 43.43633 | 5.21555 | 45 ft | 53 kts | 134° |
| 2026-04-23 14:43 | 43.43426 | 5.21850 | 49 ft | 39 kts | 134° |
| 2026-04-23 14:43 | 43.43331 | 5.22126 | 54 ft | 26 kts | 89° |
| 2026-04-23 14:43 | 43.43397 | 5.22282 | 53 ft | 21 kts | 1° |
| 2026-04-23 14:43 | 43.43523 | 5.22201 | 50 ft | 20 kts | 332° |
| 2026-04-23 14:44 | 43.43650 | 5.22105 | 47 ft | 21 kts | 331° |
| 2026-04-23 14:44 | 43.43776 | 5.21993 | 44 ft | 22 kts | 319° |
| 2026-04-23 14:44 | 43.43887 | 5.21858 | 41 ft | 19 kts | 353° |
| 2026-04-23 14:44 | 43.43969 | 5.21949 | 40 ft | 15 kts | 47° |
| 2026-04-23 14:45 | 43.44025 | 5.21984 | 39 ft | 12 kts | 339° |
| 2026-04-23 14:45 | 43.44095 | 5.21969 | 37 ft | 9 kts | 53° |
| 2026-04-23 14:45 | 43.44108 | 5.21991 | 38 ft | 5 kts | 52° |
| 2026-04-23 14:45 | 43.44112 | 5.21999 | 38 ft | 0 kts | 53° |